sensor_id;sensor_type;location;lat;lon;timestamp;P1;durP1;ratioP1;P2;durP2;ratioP2
11681;SDS011;5897;42.640;23.310;2023-04-01T00:00:51;5.38;;;3.40;;
11681;SDS011;5897;42.640;23.310;2023-04-01T00:03:19;10.70;;;3.60;;
11681;SDS011;5897;42.640;23.310;2023-04-01T00:05:46;7.15;;;4.45;;
11681;SDS011;5897;42.640;23.310;2023-04-01T00:08:14;8.50;;;5.15;;
11681;SDS011;5897;42.640;23.310;2023-04-01T00:10:42;8.88;;;5.13;;
11681;SDS011;5897;42.640;23.310;2023-04-01T00:13:08;8.57;;;5.47;;
11681;SDS011;5897;42.640;23.310;2023-04-01T00:15:35;8.35;;;5.05;;
11681;SDS011;5897;42.640;23.310;2023-04-01T00:18:02;9.05;;;5.25;;
11681;SDS011;5897;42.640;23.310;2023-04-01T00:20:29;8.00;;;5.18;;
11681;SDS011;5897;42.640;23.310;2023-04-01T00:22:56;11.32;;;5.60;;
11681;SDS011;5897;42.640;23.310;2023-04-01T00:25:24;10.10;;;6.03;;
11681;SDS011;5897;42.640;23.310;2023-04-01T00:27:51;9.68;;;5.57;;
11681;SDS011;5897;42.640;23.310;2023-04-01T00:30:18;11.07;;;6.13;;
11681;SDS011;5897;42.640;23.310;2023-04-01T00:32:45;9.93;;;5.72;;
11681;SDS011;5897;42.640;23.310;2023-04-01T00:35:12;13.50;;;5.88;;
11681;SDS011;5897;42.640;23.310;2023-04-01T00:37:39;10.88;;;5.57;;
11681;SDS011;5897;42.640;23.310;2023-04-01T00:40:06;12.60;;;6.20;;
11681;SDS011;5897;42.640;23.310;2023-04-01T00:42:49;8.45;;;5.70;;
11681;SDS011;5897;42.640;23.310;2023-04-01T00:45:23;10.57;;;5.93;;
11681;SDS011;5897;42.640;23.310;2023-04-01T00:47:54;9.45;;;5.80;;
11681;SDS011;5897;42.640;23.310;2023-04-01T00:50:22;10.07;;;6.00;;
11681;SDS011;5897;42.640;23.310;2023-04-01T00:52:51;11.32;;;6.40;;
11681;SDS011;5897;42.640;23.310;2023-04-01T00:55:19;9.38;;;5.93;;
11681;SDS011;5897;42.640;23.310;2023-04-01T00:57:47;9.65;;;5.55;;
11681;SDS011;5897;42.640;23.310;2023-04-01T01:00:17;10.30;;;5.22;;
11681;SDS011;5897;42.640;23.310;2023-04-01T01:02:44;11.63;;;5.30;;
11681;SDS011;5897;42.640;23.310;2023-04-01T01:05:12;9.15;;;5.03;;
11681;SDS011;5897;42.640;23.310;2023-04-01T01:07:42;8.68;;;4.68;;
11681;SDS011;5897;42.640;23.310;2023-04-01T01:10:15;6.57;;;4.07;;
11681;SDS011;5897;42.640;23.310;2023-04-01T01:12:46;6.78;;;4.28;;
11681;SDS011;5897;42.640;23.310;2023-04-01T01:15:21;6.07;;;3.72;;
11681;SDS011;5897;42.640;23.310;2023-04-01T01:17:54;6.30;;;3.70;;
11681;SDS011;5897;42.640;23.310;2023-04-01T01:23:40;5.38;;;3.70;;
11681;SDS011;5897;42.640;23.310;2023-04-01T01:26:38;5.90;;;3.70;;
11681;SDS011;5897;42.640;23.310;2023-04-01T01:29:13;7.75;;;4.00;;
11681;SDS011;5897;42.640;23.310;2023-04-01T01:32:11;6.15;;;3.25;;
11681;SDS011;5897;42.640;23.310;2023-04-01T01:34:53;7.53;;;5.65;;
11681;SDS011;5897;42.640;23.310;2023-04-01T01:37:25;8.23;;;3.95;;
11681;SDS011;5897;42.640;23.310;2023-04-01T01:39:54;5.47;;;3.35;;
11681;SDS011;5897;42.640;23.310;2023-04-01T01:42:25;7.55;;;3.50;;
11681;SDS011;5897;42.640;23.310;2023-04-01T01:44:54;10.40;;;3.65;;
11681;SDS011;5897;42.640;23.310;2023-04-01T01:47:24;6.28;;;3.28;;
11681;SDS011;5897;42.640;23.310;2023-04-01T01:49:52;6.68;;;3.55;;
11681;SDS011;5897;42.640;23.310;2023-04-01T01:52:21;7.68;;;3.65;;
11681;SDS011;5897;42.640;23.310;2023-04-01T01:54:49;6.45;;;3.28;;
11681;SDS011;5897;42.640;23.310;2023-04-01T01:57:17;5.18;;;3.30;;
11681;SDS011;5897;42.640;23.310;2023-04-01T01:59:49;8.18;;;3.00;;
11681;SDS011;5897;42.640;23.310;2023-04-01T02:02:18;5.55;;;2.97;;
11681;SDS011;5897;42.640;23.310;2023-04-01T02:04:46;7.20;;;4.00;;
11681;SDS011;5897;42.640;23.310;2023-04-01T02:07:14;8.63;;;3.40;;
11681;SDS011;5897;42.640;23.310;2023-04-01T02:09:46;8.23;;;3.50;;
11681;SDS011;5897;42.640;23.310;2023-04-01T02:12:15;8.00;;;3.63;;
11681;SDS011;5897;42.640;23.310;2023-04-01T02:14:45;8.98;;;3.28;;
11681;SDS011;5897;42.640;23.310;2023-04-01T02:17:17;6.35;;;3.65;;
11681;SDS011;5897;42.640;23.310;2023-04-01T02:19:46;7.55;;;3.55;;
11681;SDS011;5897;42.640;23.310;2023-04-01T02:22:16;4.90;;;3.50;;
11681;SDS011;5897;42.640;23.310;2023-04-01T02:24:46;10.25;;;3.78;;
11681;SDS011;5897;42.640;23.310;2023-04-01T02:27:16;8.07;;;3.47;;
11681;SDS011;5897;42.640;23.310;2023-04-01T02:29:44;7.65;;;3.42;;
11681;SDS011;5897;42.640;23.310;2023-04-01T02:32:11;10.50;;;3.58;;
11681;SDS011;5897;42.640;23.310;2023-04-01T02:34:39;9.20;;;3.30;;
11681;SDS011;5897;42.640;23.310;2023-04-01T02:37:06;6.80;;;3.40;;
11681;SDS011;5897;42.640;23.310;2023-04-01T02:39:33;7.63;;;3.58;;
11681;SDS011;5897;42.640;23.310;2023-04-01T02:42:00;10.88;;;3.60;;
11681;SDS011;5897;42.640;23.310;2023-04-01T02:44:28;8.40;;;2.95;;
11681;SDS011;5897;42.640;23.310;2023-04-01T02:46:55;7.43;;;3.20;;
11681;SDS011;5897;42.640;23.310;2023-04-01T02:49:22;7.43;;;3.70;;
11681;SDS011;5897;42.640;23.310;2023-04-01T02:51:49;6.93;;;3.70;;
11681;SDS011;5897;42.640;23.310;2023-04-01T02:54:17;7.72;;;3.60;;
11681;SDS011;5897;42.640;23.310;2023-04-01T02:56:43;5.82;;;3.28;;
11681;SDS011;5897;42.640;23.310;2023-04-01T02:59:10;7.03;;;3.50;;
11681;SDS011;5897;42.640;23.310;2023-04-01T03:01:39;9.93;;;3.20;;
11681;SDS011;5897;42.640;23.310;2023-04-01T03:04:06;13.18;;;4.97;;
11681;SDS011;5897;42.640;23.310;2023-04-01T03:06:33;9.35;;;3.45;;
11681;SDS011;5897;42.640;23.310;2023-04-01T03:09:00;8.40;;;3.47;;
11681;SDS011;5897;42.640;23.310;2023-04-01T03:11:27;6.28;;;3.30;;
11681;SDS011;5897;42.640;23.310;2023-04-01T03:13:54;6.55;;;3.42;;
11681;SDS011;5897;42.640;23.310;2023-04-01T03:16:21;9.68;;;3.25;;
11681;SDS011;5897;42.640;23.310;2023-04-01T03:18:49;6.53;;;3.45;;
11681;SDS011;5897;42.640;23.310;2023-04-01T03:21:18;7.45;;;3.35;;
11681;SDS011;5897;42.640;23.310;2023-04-01T03:23:47;7.72;;;3.50;;
11681;SDS011;5897;42.640;23.310;2023-04-01T03:26:14;7.18;;;3.22;;
11681;SDS011;5897;42.640;23.310;2023-04-01T03:28:41;4.93;;;1.80;;
11681;SDS011;5897;42.640;23.310;2023-04-01T03:31:08;4.20;;;1.50;;
11681;SDS011;5897;42.640;23.310;2023-04-01T03:33:35;4.38;;;2.10;;
11681;SDS011;5897;42.640;23.310;2023-04-01T03:36:03;6.45;;;3.15;;
11681;SDS011;5897;42.640;23.310;2023-04-01T03:38:31;6.53;;;2.80;;
11681;SDS011;5897;42.640;23.310;2023-04-01T03:40:58;7.30;;;3.25;;
11681;SDS011;5897;42.640;23.310;2023-04-01T03:43:25;8.70;;;3.60;;
11681;SDS011;5897;42.640;23.310;2023-04-01T03:45:52;6.70;;;3.30;;
11681;SDS011;5897;42.640;23.310;2023-04-01T03:48:21;5.05;;;2.83;;
11681;SDS011;5897;42.640;23.310;2023-04-01T03:50:48;5.05;;;3.15;;
11681;SDS011;5897;42.640;23.310;2023-04-01T03:53:16;5.60;;;3.42;;
11681;SDS011;5897;42.640;23.310;2023-04-01T03:55:43;7.07;;;3.30;;
11681;SDS011;5897;42.640;23.310;2023-04-01T03:58:10;5.97;;;3.00;;
11681;SDS011;5897;42.640;23.310;2023-04-01T04:00:37;7.78;;;3.10;;
11681;SDS011;5897;42.640;23.310;2023-04-01T04:03:03;4.82;;;2.72;;
11681;SDS011;5897;42.640;23.310;2023-04-01T04:05:32;7.38;;;3.40;;
11681;SDS011;5897;42.640;23.310;2023-04-01T04:07:59;7.15;;;3.30;;
11681;SDS011;5897;42.640;23.310;2023-04-01T04:10:27;7.15;;;3.03;;
11681;SDS011;5897;42.640;23.310;2023-04-01T04:12:54;5.00;;;2.38;;
11681;SDS011;5897;42.640;23.310;2023-04-01T04:15:22;7.20;;;2.60;;
11681;SDS011;5897;42.640;23.310;2023-04-01T04:17:48;7.85;;;2.83;;
11681;SDS011;5897;42.640;23.310;2023-04-01T04:20:15;7.10;;;2.80;;
11681;SDS011;5897;42.640;23.310;2023-04-01T04:22:42;9.18;;;2.55;;
11681;SDS011;5897;42.640;23.310;2023-04-01T04:25:09;5.15;;;1.90;;
11681;SDS011;5897;42.640;23.310;2023-04-01T04:27:37;4.60;;;2.20;;
11681;SDS011;5897;42.640;23.310;2023-04-01T04:30:05;8.93;;;2.42;;
11681;SDS011;5897;42.640;23.310;2023-04-01T04:32:33;7.47;;;2.83;;
11681;SDS011;5897;42.640;23.310;2023-04-01T04:35:00;6.38;;;2.78;;
11681;SDS011;5897;42.640;23.310;2023-04-01T04:37:27;8.40;;;4.10;;
11681;SDS011;5897;42.640;23.310;2023-04-01T04:39:53;9.95;;;3.75;;
11681;SDS011;5897;42.640;23.310;2023-04-01T04:42:20;6.03;;;4.22;;
11681;SDS011;5897;42.640;23.310;2023-04-01T04:44:48;6.93;;;4.45;;
11681;SDS011;5897;42.640;23.310;2023-04-01T04:47:15;10.93;;;4.78;;
11681;SDS011;5897;42.640;23.310;2023-04-01T04:49:42;8.95;;;4.22;;
11681;SDS011;5897;42.640;23.310;2023-04-01T04:52:09;6.32;;;4.43;;
11681;SDS011;5897;42.640;23.310;2023-04-01T04:54:36;8.90;;;4.93;;
11681;SDS011;5897;42.640;23.310;2023-04-01T04:57:02;6.88;;;4.78;;
11681;SDS011;5897;42.640;23.310;2023-04-01T04:59:30;8.48;;;4.40;;
11681;SDS011;5897;42.640;23.310;2023-04-01T05:01:58;9.55;;;4.97;;
11681;SDS011;5897;42.640;23.310;2023-04-01T05:04:25;11.63;;;5.05;;
11681;SDS011;5897;42.640;23.310;2023-04-01T05:06:51;14.02;;;4.80;;
11681;SDS011;5897;42.640;23.310;2023-04-01T05:09:18;9.95;;;5.15;;
11681;SDS011;5897;42.640;23.310;2023-04-01T05:11:45;9.85;;;5.03;;
11681;SDS011;5897;42.640;23.310;2023-04-01T05:14:12;11.40;;;4.70;;
11681;SDS011;5897;42.640;23.310;2023-04-01T05:16:40;7.93;;;4.30;;
11681;SDS011;5897;42.640;23.310;2023-04-01T05:19:08;9.05;;;4.50;;
11681;SDS011;5897;42.640;23.310;2023-04-01T05:21:34;8.23;;;4.38;;
11681;SDS011;5897;42.640;23.310;2023-04-01T05:24:01;7.03;;;4.40;;
11681;SDS011;5897;42.640;23.310;2023-04-01T05:26:28;13.40;;;5.30;;
11681;SDS011;5897;42.640;23.310;2023-04-01T05:28:55;7.63;;;4.70;;
11681;SDS011;5897;42.640;23.310;2023-04-01T05:31:22;8.07;;;5.00;;
11681;SDS011;5897;42.640;23.310;2023-04-01T05:33:50;9.57;;;4.57;;
11681;SDS011;5897;42.640;23.310;2023-04-01T05:36:19;11.57;;;5.63;;
11681;SDS011;5897;42.640;23.310;2023-04-01T05:38:46;9.98;;;5.55;;
11681;SDS011;5897;42.640;23.310;2023-04-01T05:41:16;12.25;;;6.45;;
11681;SDS011;5897;42.640;23.310;2023-04-01T05:43:42;12.38;;;6.25;;
11681;SDS011;5897;42.640;23.310;2023-04-01T05:46:09;11.45;;;6.03;;
11681;SDS011;5897;42.640;23.310;2023-04-01T05:48:36;12.00;;;5.90;;
11681;SDS011;5897;42.640;23.310;2023-04-01T05:51:04;12.45;;;5.72;;
11681;SDS011;5897;42.640;23.310;2023-04-01T05:53:32;12.00;;;6.05;;
11681;SDS011;5897;42.640;23.310;2023-04-01T05:56:01;10.07;;;5.63;;
11681;SDS011;5897;42.640;23.310;2023-04-01T05:58:29;11.30;;;5.10;;
11681;SDS011;5897;42.640;23.310;2023-04-01T06:01:00;12.80;;;6.18;;
11681;SDS011;5897;42.640;23.310;2023-04-01T06:03:27;14.93;;;5.55;;
11681;SDS011;5897;42.640;23.310;2023-04-01T06:05:54;12.45;;;5.35;;
11681;SDS011;5897;42.640;23.310;2023-04-01T06:08:21;11.68;;;4.70;;
11681;SDS011;5897;42.640;23.310;2023-04-01T06:13:43;9.90;;;4.28;;
11681;SDS011;5897;42.640;23.310;2023-04-01T06:16:25;8.48;;;4.35;;
11681;SDS011;5897;42.640;23.310;2023-04-01T06:19:05;13.63;;;4.53;;
11681;SDS011;5897;42.640;23.310;2023-04-01T06:21:46;13.85;;;4.47;;
11681;SDS011;5897;42.640;23.310;2023-04-01T06:24:44;8.15;;;5.00;;
11681;SDS011;5897;42.640;23.310;2023-04-01T06:27:29;11.90;;;4.28;;
11681;SDS011;5897;42.640;23.310;2023-04-01T06:30:17;10.80;;;4.40;;
11681;SDS011;5897;42.640;23.310;2023-04-01T06:36:11;4.50;;;3.00;;
11681;SDS011;5897;42.640;23.310;2023-04-01T06:38:57;5.88;;;3.03;;
11681;SDS011;5897;42.640;23.310;2023-04-01T06:41:52;6.93;;;3.30;;
11681;SDS011;5897;42.640;23.310;2023-04-01T06:44:34;10.13;;;3.50;;
11681;SDS011;5897;42.640;23.310;2023-04-01T06:47:13;11.38;;;3.50;;
11681;SDS011;5897;42.640;23.310;2023-04-01T06:49:52;7.28;;;3.50;;
11681;SDS011;5897;42.640;23.310;2023-04-01T06:52:26;7.63;;;4.05;;
11681;SDS011;5897;42.640;23.310;2023-04-01T06:55:07;8.57;;;3.88;;
11681;SDS011;5897;42.640;23.310;2023-04-01T06:57:47;7.13;;;3.53;;
11681;SDS011;5897;42.640;23.310;2023-04-01T07:00:19;7.25;;;3.70;;
11681;SDS011;5897;42.640;23.310;2023-04-01T07:02:54;7.45;;;3.67;;
11681;SDS011;5897;42.640;23.310;2023-04-01T07:05:31;9.00;;;3.63;;
11681;SDS011;5897;42.640;23.310;2023-04-01T07:08:00;7.10;;;3.65;;
11681;SDS011;5897;42.640;23.310;2023-04-01T07:10:32;7.65;;;3.40;;
11681;SDS011;5897;42.640;23.310;2023-04-01T07:13:05;9.20;;;3.72;;
11681;SDS011;5897;42.640;23.310;2023-04-01T07:15:39;14.95;;;4.43;;
11681;SDS011;5897;42.640;23.310;2023-04-01T07:18:10;10.15;;;4.22;;
11681;SDS011;5897;42.640;23.310;2023-04-01T07:20:42;10.20;;;3.95;;
11681;SDS011;5897;42.640;23.310;2023-04-01T07:23:10;9.27;;;4.15;;
11681;SDS011;5897;42.640;23.310;2023-04-01T07:25:47;12.00;;;4.25;;
11681;SDS011;5897;42.640;23.310;2023-04-01T07:28:18;8.70;;;3.58;;
11681;SDS011;5897;42.640;23.310;2023-04-01T07:30:50;11.20;;;4.30;;
11681;SDS011;5897;42.640;23.310;2023-04-01T07:33:26;6.65;;;4.20;;
11681;SDS011;5897;42.640;23.310;2023-04-01T07:36:02;6.63;;;4.32;;
11681;SDS011;5897;42.640;23.310;2023-04-01T07:38:33;10.85;;;4.55;;
11681;SDS011;5897;42.640;23.310;2023-04-01T07:41:08;8.02;;;4.25;;
11681;SDS011;5897;42.640;23.310;2023-04-01T07:43:49;9.63;;;4.50;;
11681;SDS011;5897;42.640;23.310;2023-04-01T07:49:13;11.80;;;4.13;;
11681;SDS011;5897;42.640;23.310;2023-04-01T07:51:45;7.30;;;4.40;;
11681;SDS011;5897;42.640;23.310;2023-04-01T07:54:19;11.52;;;4.22;;
11681;SDS011;5897;42.640;23.310;2023-04-01T07:56:51;7.55;;;4.25;;
11681;SDS011;5897;42.640;23.310;2023-04-01T07:59:25;6.90;;;4.43;;
11681;SDS011;5897;42.640;23.310;2023-04-01T08:02:02;9.55;;;4.38;;
11681;SDS011;5897;42.640;23.310;2023-04-01T08:04:40;7.03;;;4.63;;
11681;SDS011;5897;42.640;23.310;2023-04-01T08:07:20;10.93;;;4.50;;
11681;SDS011;5897;42.640;23.310;2023-04-01T08:09:51;9.10;;;4.47;;
11681;SDS011;5897;42.640;23.310;2023-04-01T08:12:27;9.27;;;4.53;;
11681;SDS011;5897;42.640;23.310;2023-04-01T08:15:11;10.15;;;3.95;;
11681;SDS011;5897;42.640;23.310;2023-04-01T08:17:51;9.55;;;3.85;;
11681;SDS011;5897;42.640;23.310;2023-04-01T08:20:28;8.68;;;2.28;;
11681;SDS011;5897;42.640;23.310;2023-04-01T08:23:05;6.93;;;2.20;;
11681;SDS011;5897;42.640;23.310;2023-04-01T08:25:38;5.30;;;2.03;;
11681;SDS011;5897;42.640;23.310;2023-04-01T08:28:13;6.95;;;3.80;;
11681;SDS011;5897;42.640;23.310;2023-04-01T08:30:44;10.52;;;3.90;;
11681;SDS011;5897;42.640;23.310;2023-04-01T08:33:17;8.77;;;3.20;;
11681;SDS011;5897;42.640;23.310;2023-04-01T08:35:48;6.60;;;2.75;;
11681;SDS011;5897;42.640;23.310;2023-04-01T08:38:21;4.35;;;1.70;;
11681;SDS011;5897;42.640;23.310;2023-04-01T08:43:55;4.35;;;1.40;;
11681;SDS011;5897;42.640;23.310;2023-04-01T08:49:54;8.15;;;3.38;;
11681;SDS011;5897;42.640;23.310;2023-04-01T08:52:33;6.15;;;3.40;;
11681;SDS011;5897;42.640;23.310;2023-04-01T08:57:57;9.60;;;3.58;;
11681;SDS011;5897;42.640;23.310;2023-04-01T09:00:42;6.28;;;2.88;;
11681;SDS011;5897;42.640;23.310;2023-04-01T09:06:09;13.85;;;3.80;;
11681;SDS011;5897;42.640;23.310;2023-04-01T09:08:50;12.57;;;3.50;;
11681;SDS011;5897;42.640;23.310;2023-04-01T09:11:28;7.60;;;3.50;;
11681;SDS011;5897;42.640;23.310;2023-04-01T09:14:15;6.60;;;2.80;;
11681;SDS011;5897;42.640;23.310;2023-04-01T09:16:58;11.45;;;3.10;;
11681;SDS011;5897;42.640;23.310;2023-04-01T09:19:47;6.07;;;2.60;;
11681;SDS011;5897;42.640;23.310;2023-04-01T09:22:35;8.32;;;3.10;;
11681;SDS011;5897;42.640;23.310;2023-04-01T09:25:22;6.20;;;3.20;;
11681;SDS011;5897;42.640;23.310;2023-04-01T09:27:57;4.55;;;2.75;;
11681;SDS011;5897;42.640;23.310;2023-04-01T09:30:45;7.03;;;2.00;;
11681;SDS011;5897;42.640;23.310;2023-04-01T09:36:33;7.90;;;3.10;;
11681;SDS011;5897;42.640;23.310;2023-04-01T09:39:16;6.45;;;2.70;;
11681;SDS011;5897;42.640;23.310;2023-04-01T09:42:06;6.30;;;2.50;;
11681;SDS011;5897;42.640;23.310;2023-04-01T09:44:56;8.05;;;2.70;;
11681;SDS011;5897;42.640;23.310;2023-04-01T09:47:33;6.50;;;2.20;;
11681;SDS011;5897;42.640;23.310;2023-04-01T09:50:20;6.32;;;2.58;;
11681;SDS011;5897;42.640;23.310;2023-04-01T09:52:57;12.98;;;2.70;;
11681;SDS011;5897;42.640;23.310;2023-04-01T09:55:58;8.15;;;2.70;;
11681;SDS011;5897;42.640;23.310;2023-04-01T10:02:20;8.27;;;2.15;;
11681;SDS011;5897;42.640;23.310;2023-04-01T10:05:22;6.38;;;2.05;;
11681;SDS011;5897;42.640;23.310;2023-04-01T10:11:13;5.65;;;1.75;;
11681;SDS011;5897;42.640;23.310;2023-04-01T10:13:55;6.00;;;1.83;;
11681;SDS011;5897;42.640;23.310;2023-04-01T10:16:50;3.22;;;1.33;;
11681;SDS011;5897;42.640;23.310;2023-04-01T10:19:55;6.78;;;1.88;;
11681;SDS011;5897;42.640;23.310;2023-04-01T10:25:53;6.32;;;1.60;;
11681;SDS011;5897;42.640;23.310;2023-04-01T10:37:45;5.75;;;1.63;;
11681;SDS011;5897;42.640;23.310;2023-04-01T10:40:38;3.47;;;1.50;;
11681;SDS011;5897;42.640;23.310;2023-04-01T10:46:51;4.68;;;1.80;;
11681;SDS011;5897;42.640;23.310;2023-04-01T10:49:41;5.80;;;1.33;;
11681;SDS011;5897;42.640;23.310;2023-04-01T11:01:29;3.47;;;1.50;;
11681;SDS011;5897;42.640;23.310;2023-04-01T11:04:26;7.20;;;2.03;;
11681;SDS011;5897;42.640;23.310;2023-04-01T11:10:28;6.00;;;1.55;;
11681;SDS011;5897;42.640;23.310;2023-04-01T11:17:04;7.25;;;2.00;;
11681;SDS011;5897;42.640;23.310;2023-04-01T11:23:09;5.00;;;1.70;;
11681;SDS011;5897;42.640;23.310;2023-04-01T11:26:05;4.55;;;1.80;;
11681;SDS011;5897;42.640;23.310;2023-04-01T11:28:39;5.13;;;1.52;;
11681;SDS011;5897;42.640;23.310;2023-04-01T11:31:22;5.05;;;1.95;;
11681;SDS011;5897;42.640;23.310;2023-04-01T11:34:20;3.22;;;1.58;;
11681;SDS011;5897;42.640;23.310;2023-04-01T11:37:11;4.80;;;1.50;;
11681;SDS011;5897;42.640;23.310;2023-04-01T11:39:57;6.43;;;1.80;;
11681;SDS011;5897;42.640;23.310;2023-04-01T11:42:34;5.30;;;2.10;;
11681;SDS011;5897;42.640;23.310;2023-04-01T11:45:15;5.07;;;1.55;;
11681;SDS011;5897;42.640;23.310;2023-04-01T11:48:07;5.07;;;1.48;;
11681;SDS011;5897;42.640;23.310;2023-04-01T11:51:07;4.82;;;1.90;;
11681;SDS011;5897;42.640;23.310;2023-04-01T11:53:57;5.32;;;2.13;;
11681;SDS011;5897;42.640;23.310;2023-04-01T11:56:51;6.28;;;2.10;;
11681;SDS011;5897;42.640;23.310;2023-04-01T12:02:29;5.45;;;2.03;;
11681;SDS011;5897;42.640;23.310;2023-04-01T12:05:21;6.00;;;2.75;;
11681;SDS011;5897;42.640;23.310;2023-04-01T12:08:04;7.28;;;3.00;;
11681;SDS011;5897;42.640;23.310;2023-04-01T12:10:40;6.35;;;2.75;;
11681;SDS011;5897;42.640;23.310;2023-04-01T12:13:16;7.05;;;3.72;;
11681;SDS011;5897;42.640;23.310;2023-04-01T12:16:05;6.43;;;2.80;;
11681;SDS011;5897;42.640;23.310;2023-04-01T12:18:42;4.72;;;2.72;;
11681;SDS011;5897;42.640;23.310;2023-04-01T12:21:17;5.55;;;2.83;;
11681;SDS011;5897;42.640;23.310;2023-04-01T12:23:57;5.32;;;2.22;;
11681;SDS011;5897;42.640;23.310;2023-04-01T12:26:58;4.50;;;2.00;;
11681;SDS011;5897;42.640;23.310;2023-04-01T12:32:57;2.03;;;1.60;;
11681;SDS011;5897;42.640;23.310;2023-04-01T12:35:39;2.60;;;1.75;;
11681;SDS011;5897;42.640;23.310;2023-04-01T12:38:20;4.13;;;1.52;;
11681;SDS011;5897;42.640;23.310;2023-04-01T12:40:59;3.28;;;1.30;;
11681;SDS011;5897;42.640;23.310;2023-04-01T12:46:37;7.72;;;2.03;;
11681;SDS011;5897;42.640;23.310;2023-04-01T12:49:23;3.45;;;1.90;;
11681;SDS011;5897;42.640;23.310;2023-04-01T12:52:10;3.53;;;2.50;;
11681;SDS011;5897;42.640;23.310;2023-04-01T12:54:48;3.20;;;2.08;;
11681;SDS011;5897;42.640;23.310;2023-04-01T13:00:51;3.03;;;1.80;;
11681;SDS011;5897;42.640;23.310;2023-04-01T13:03:42;2.60;;;1.58;;
11681;SDS011;5897;42.640;23.310;2023-04-01T13:06:20;3.30;;;1.50;;
11681;SDS011;5897;42.640;23.310;2023-04-01T13:09:10;2.47;;;1.20;;
11681;SDS011;5897;42.640;23.310;2023-04-01T13:11:49;1.92;;;1.20;;
11681;SDS011;5897;42.640;23.310;2023-04-01T13:14:36;1.85;;;0.90;;
11681;SDS011;5897;42.640;23.310;2023-04-01T13:17:21;1.13;;;0.70;;
11681;SDS011;5897;42.640;23.310;2023-04-01T13:19:56;0.98;;;0.65;;
11681;SDS011;5897;42.640;23.310;2023-04-01T13:22:41;1.80;;;1.10;;
11681;SDS011;5897;42.640;23.310;2023-04-01T13:25:20;1.23;;;0.85;;
11681;SDS011;5897;42.640;23.310;2023-04-01T13:27:55;2.97;;;1.75;;
11681;SDS011;5897;42.640;23.310;2023-04-01T13:30:29;2.95;;;1.67;;
11681;SDS011;5897;42.640;23.310;2023-04-01T13:32:59;3.03;;;2.00;;
11681;SDS011;5897;42.640;23.310;2023-04-01T13:35:34;3.63;;;2.30;;
11681;SDS011;5897;42.640;23.310;2023-04-01T13:38:17;4.53;;;1.90;;
11681;SDS011;5897;42.640;23.310;2023-04-01T13:41:06;2.97;;;1.40;;
11681;SDS011;5897;42.640;23.310;2023-04-01T13:43:45;1.25;;;0.90;;
11681;SDS011;5897;42.640;23.310;2023-04-01T13:46:25;2.35;;;0.90;;
11681;SDS011;5897;42.640;23.310;2023-04-01T13:49:08;2.65;;;1.40;;
11681;SDS011;5897;42.640;23.310;2023-04-01T13:51:48;1.65;;;1.30;;
11681;SDS011;5897;42.640;23.310;2023-04-01T13:54:36;3.58;;;1.40;;
11681;SDS011;5897;42.640;23.310;2023-04-01T13:57:22;1.48;;;0.90;;
11681;SDS011;5897;42.640;23.310;2023-04-01T14:03:08;1.38;;;0.82;;
11681;SDS011;5897;42.640;23.310;2023-04-01T14:11:53;0.85;;;0.82;;
11681;SDS011;5897;42.640;23.310;2023-04-01T14:14:31;2.25;;;1.00;;
11681;SDS011;5897;42.640;23.310;2023-04-01T14:17:09;1.90;;;0.90;;
11681;SDS011;5897;42.640;23.310;2023-04-01T14:22:45;1.40;;;0.85;;
11681;SDS011;5897;42.640;23.310;2023-04-01T14:25:27;1.42;;;1.02;;
11681;SDS011;5897;42.640;23.310;2023-04-01T14:28:21;1.30;;;1.00;;
11681;SDS011;5897;42.640;23.310;2023-04-01T14:30:59;1.40;;;0.90;;
11681;SDS011;5897;42.640;23.310;2023-04-01T14:33:46;1.98;;;1.35;;
11681;SDS011;5897;42.640;23.310;2023-04-01T14:36:38;1.48;;;1.30;;
11681;SDS011;5897;42.640;23.310;2023-04-01T14:39:22;1.00;;;0.90;;
11681;SDS011;5897;42.640;23.310;2023-04-01T14:42:32;3.28;;;1.10;;
11681;SDS011;5897;42.640;23.310;2023-04-01T14:45:20;1.55;;;0.90;;
11681;SDS011;5897;42.640;23.310;2023-04-01T14:48:05;1.45;;;0.90;;
11681;SDS011;5897;42.640;23.310;2023-04-01T14:50:44;0.95;;;0.80;;
11681;SDS011;5897;42.640;23.310;2023-04-01T14:53:16;1.75;;;0.90;;
11681;SDS011;5897;42.640;23.310;2023-04-01T14:55:55;2.05;;;0.93;;
11681;SDS011;5897;42.640;23.310;2023-04-01T14:58:24;3.85;;;1.58;;
11681;SDS011;5897;42.640;23.310;2023-04-01T15:01:10;8.50;;;4.25;;
11681;SDS011;5897;42.640;23.310;2023-04-01T15:03:52;5.03;;;3.30;;
11681;SDS011;5897;42.640;23.310;2023-04-01T15:09:27;4.07;;;2.30;;
11681;SDS011;5897;42.640;23.310;2023-04-01T15:12:11;6.38;;;2.60;;
11681;SDS011;5897;42.640;23.310;2023-04-01T15:14:51;6.53;;;2.70;;
11681;SDS011;5897;42.640;23.310;2023-04-01T15:23:18;7.10;;;3.75;;
11681;SDS011;5897;42.640;23.310;2023-04-01T15:28:55;3.22;;;1.60;;
11681;SDS011;5897;42.640;23.310;2023-04-01T15:31:38;1.33;;;1.10;;
11681;SDS011;5897;42.640;23.310;2023-04-01T15:34:17;1.75;;;1.00;;
11681;SDS011;5897;42.640;23.310;2023-04-01T15:36:53;2.13;;;1.20;;
11681;SDS011;5897;42.640;23.310;2023-04-01T15:39:29;1.48;;;0.98;;
11681;SDS011;5897;42.640;23.310;2023-04-01T15:42:12;1.63;;;0.82;;
11681;SDS011;5897;42.640;23.310;2023-04-01T15:44:57;1.33;;;1.05;;
11681;SDS011;5897;42.640;23.310;2023-04-01T15:47:52;1.58;;;1.15;;
11681;SDS011;5897;42.640;23.310;2023-04-01T15:53:18;1.42;;;1.23;;
11681;SDS011;5897;42.640;23.310;2023-04-01T15:55:57;0.75;;;0.70;;
11681;SDS011;5897;42.640;23.310;2023-04-01T15:58:40;1.83;;;1.00;;
11681;SDS011;5897;42.640;23.310;2023-04-01T16:01:27;2.30;;;1.40;;
11681;SDS011;5897;42.640;23.310;2023-04-01T16:04:14;1.10;;;1.00;;
11681;SDS011;5897;42.640;23.310;2023-04-01T16:07:06;1.70;;;1.08;;
11681;SDS011;5897;42.640;23.310;2023-04-01T16:09:46;1.23;;;1.10;;
11681;SDS011;5897;42.640;23.310;2023-04-01T16:12:24;3.15;;;0.90;;
11681;SDS011;5897;42.640;23.310;2023-04-01T16:15:04;1.83;;;1.20;;
11681;SDS011;5897;42.640;23.310;2023-04-01T16:17:54;2.05;;;1.10;;
11681;SDS011;5897;42.640;23.310;2023-04-01T16:20:40;1.75;;;1.27;;
11681;SDS011;5897;42.640;23.310;2023-04-01T16:23:18;2.20;;;1.50;;
11681;SDS011;5897;42.640;23.310;2023-04-01T16:25:49;1.63;;;1.30;;
11681;SDS011;5897;42.640;23.310;2023-04-01T16:28:27;1.45;;;1.27;;
11681;SDS011;5897;42.640;23.310;2023-04-01T16:30:58;2.15;;;1.00;;
11681;SDS011;5897;42.640;23.310;2023-04-01T16:33:34;1.67;;;1.08;;
11681;SDS011;5897;42.640;23.310;2023-04-01T16:36:09;1.20;;;1.10;;
11681;SDS011;5897;42.640;23.310;2023-04-01T16:38:43;1.30;;;1.10;;
11681;SDS011;5897;42.640;23.310;2023-04-01T16:41:19;1.05;;;0.90;;
11681;SDS011;5897;42.640;23.310;2023-04-01T16:43:52;1.02;;;1.02;;
11681;SDS011;5897;42.640;23.310;2023-04-01T16:46:27;1.17;;;1.08;;
11681;SDS011;5897;42.640;23.310;2023-04-01T16:51:54;1.00;;;1.00;;
11681;SDS011;5897;42.640;23.310;2023-04-01T16:54:28;0.90;;;0.90;;
11681;SDS011;5897;42.640;23.310;2023-04-01T16:57:02;2.00;;;1.25;;
11681;SDS011;5897;42.640;23.310;2023-04-01T16:59:38;1.02;;;0.90;;
11681;SDS011;5897;42.640;23.310;2023-04-01T17:02:13;1.40;;;1.30;;
11681;SDS011;5897;42.640;23.310;2023-04-01T17:04:43;1.70;;;1.60;;
11681;SDS011;5897;42.640;23.310;2023-04-01T17:07:18;1.75;;;1.30;;
11681;SDS011;5897;42.640;23.310;2023-04-01T17:10:02;1.00;;;1.00;;
11681;SDS011;5897;42.640;23.310;2023-04-01T17:12:43;0.88;;;0.88;;
11681;SDS011;5897;42.640;23.310;2023-04-01T17:15:31;0.90;;;0.90;;
11681;SDS011;5897;42.640;23.310;2023-04-01T17:18:21;1.10;;;1.00;;
11681;SDS011;5897;42.640;23.310;2023-04-01T17:21:03;0.80;;;0.80;;
11681;SDS011;5897;42.640;23.310;2023-04-01T17:23:37;0.90;;;0.90;;
11681;SDS011;5897;42.640;23.310;2023-04-01T17:26:16;1.77;;;1.13;;
11681;SDS011;5897;42.640;23.310;2023-04-01T17:29:10;1.45;;;1.35;;